Time;durP1;ratioP1;P1;durP2;ratioP2;P2;SDS_P1;SDS_P2;PMS_P1;PMS_P2;Temp;Humidity;BMP_temperature;BMP_pressure;BME280_temperature;BME280_humidity;BME280_pressure;Samples;Min_cycle;Max_cycle;Signal;HPM_P1;HPM_P2
2022/07/28 00:01:28;;;;;;;3.43;1.10;;;;;;;12.42;100.00;101241.44;5026605;28;20029;-77
2022/07/28 00:03:53;;;;;;;7.63;1.30;;;;;;;12.46;100.00;101256.19;5026438;28;20053;-76
2022/07/28 00:06:19;;;;;;;8.30;1.60;;;;;;;12.48;100.00;101259.56;5026472;28;20037;-77
2022/07/28 00:08:44;;;;;;;4.57;0.97;;;;;;;12.57;100.00;101289.84;5009954;28;20091;-77
2022/07/28 00:11:10;;;;;;;5.97;1.85;;;;;;;12.59;100.00;101293.22;5025744;28;20049;-74
2022/07/28 00:13:35;;;;;;;5.53;1.20;;;;;;;12.61;100.00;101308.13;5026407;28;20029;-74
2022/07/28 00:16:01;;;;;;;4.97;1.33;;;;;;;12.58;100.00;101297.75;5027562;28;20092;-77
2022/07/28 00:18:26;;;;;;;4.40;1.63;;;;;;;12.63;100.00;101326.72;5026214;28;20032;-76
2022/07/28 00:20:51;;;;;;;2.10;0.97;;;;;;;12.59;100.00;101326.19;5027240;28;20037;-75
2022/07/28 00:23:17;;;;;;;17.03;2.30;;;;;;;12.61;100.00;101350.97;5026294;28;20029;-77
2022/07/28 00:25:42;;;;;;;5.53;1.50;;;;;;;12.57;100.00;101333.56;5026037;28;20379;-77
2022/07/28 00:28:08;;;;;;;7.73;1.10;;;;;;;12.56;100.00;101349.78;5026066;28;20394;-75
2022/07/28 00:30:33;;;;;;;8.07;1.60;;;;;;;12.54;100.00;101355.31;5025439;28;20041;-77
2022/07/28 00:32:59;;;;;;;5.03;1.37;;;;;;;12.62;100.00;101357.19;5027421;28;20029;-76
2022/07/28 00:35:24;;;;;;;3.33;1.70;;;;;;;12.65;100.00;101349.66;5009695;28;20029;-75
2022/07/28 00:37:49;;;;;;;4.73;1.20;;;;;;;12.65;100.00;101336.25;5009223;28;20029;-74
2022/07/28 00:40:15;;;;;;;7.57;2.60;;;;;;;12.62;100.00;101315.16;5025172;28;20387;-74
2022/07/28 00:42:41;;;;;;;4.27;1.33;;;;;;;12.61;100.00;101316.16;5027172;28;20025;-75
2022/07/28 00:45:07;;;;;;;5.07;1.35;;;;;;;12.58;100.00;101327.19;5025734;28;20159;-74
2022/07/28 00:47:32;;;;;;;6.57;2.05;;;;;;;12.65;100.00;101340.78;5025818;28;20022;-75
2022/07/28 00:49:57;;;;;;;4.27;1.20;;;;;;;12.63;100.00;101310.66;5026293;28;20032;-76
2022/07/28 00:52:24;;;;;;;5.20;1.27;;;;;;;12.54;100.00;101304.41;5009264;28;20108;-76
2022/07/28 00:54:49;;;;;;;7.65;1.40;;;;;;;12.60;100.00;101254.72;5027569;28;20112;-76
2022/07/28 00:57:15;;;;;;;3.40;1.30;;;;;;;12.56;100.00;101224.75;5009831;28;20031;-76
2022/07/28 00:59:40;;;;;;;6.50;1.77;;;;;;;12.56;100.00;101214.03;5025243;28;20029;-76
2022/07/28 01:02:06;;;;;;;7.03;2.63;;;;;;;12.61;100.00;101221.56;5026988;28;20279;-76
2022/07/28 01:04:32;;;;;;;8.75;1.27;;;;;;;12.61;100.00;101222.41;5025486;28;20658;-76
2022/07/28 01:07:14;;;;;;;2.70;1.10;;;;;;;12.66;100.00;101243.34;5026031;28;20029;-73
2022/07/28 01:10:01;;;;;;;7.15;1.65;;;;;;;12.60;100.00;101214.56;5025458;28;20030;-75
2022/07/28 01:13:00;;;;;;;7.28;1.40;;;;;;;12.57;100.00;101201.47;5026248;28;20103;-75
2022/07/28 01:15:35;;;;;;;4.45;1.38;;;;;;;12.56;100.00;101213.19;5007967;28;20183;-76
2022/07/28 01:18:19;;;;;;;11.65;1.77;;;;;;;12.59;100.00;101186.06;5001562;28;20041;-76
2022/07/28 01:20:48;;;;;;;5.78;1.45;;;;;;;12.49;100.00;101162.13;5022648;28;20105;-76
2022/07/28 01:23:26;;;;;;;2.83;1.40;;;;;;;12.42;100.00;101185.22;5025121;28;20032;-76
2022/07/28 01:26:10;;;;;;;5.03;1.40;;;;;;;12.25;100.00;101228.00;5025235;28;20168;-74
2022/07/28 01:28:54;;;;;;;4.03;1.50;;;;;;;12.15;100.00;101256.75;5010569;28;20029;-75
2022/07/28 01:31:24;;;;;;;2.70;1.48;;;;;;;11.99;100.00;101278.06;5016870;28;20403;-76
2022/07/28 01:33:59;;;;;;;6.03;2.47;;;;;;;11.78;100.00;101295.28;5015402;28;20029;-74
2022/07/28 01:36:30;;;;;;;3.95;1.35;;;;;;;11.74;100.00;101319.84;5017634;28;20023;-76
2022/07/28 01:38:57;;;;;;;5.63;1.67;;;;;;;11.59;100.00;101340.97;5015792;28;20123;-76
2022/07/28 01:41:27;;;;;;;2.55;1.40;;;;;;;11.47;100.00;101355.53;4999332;28;20022;-75
2022/07/28 01:44:05;;;;;;;6.40;1.50;;;;;;;11.28;100.00;101375.25;5014365;28;20048;-73
2022/07/28 01:46:32;;;;;;;4.47;1.95;;;;;;;11.12;100.00;101386.59;5020418;28;20036;-76
2022/07/28 01:48:59;;;;;;;7.50;1.50;;;;;;;11.07;100.00;101407.59;5024574;28;20041;-73
2022/07/28 01:51:28;;;;;;;5.55;1.42;;;;;;;10.98;100.00;101420.88;5025582;28;20030;-76
2022/07/28 01:53:57;;;;;;;3.60;1.70;;;;;;;10.92;100.00;101440.16;5023342;28;20033;-76
2022/07/28 01:56:25;;;;;;;3.17;1.50;;;;;;;10.85;100.00;101447.09;5033036;28;20041;-73
2022/07/28 01:58:54;;;;;;;4.05;1.63;;;;;;;10.75;100.00;101444.47;5007876;28;20025;-75
2022/07/28 02:01:22;;;;;;;4.35;1.65;;;;;;;10.68;100.00;101447.88;5024515;28;20498;-76
2022/07/28 02:03:50;;;;;;;6.00;1.42;;;;;;;10.56;100.00;101437.34;5024261;28;20052;-76
2022/07/28 02:06:18;;;;;;;4.18;1.42;;;;;;;10.44;100.00;101438.53;5025841;28;20116;-77
2022/07/28 02:08:45;;;;;;;7.72;1.98;;;;;;;10.34;100.00;101437.69;5023899;28;20031;-77
2022/07/28 02:13:56;;;;;;;7.82;1.58;;;;;;;10.28;100.00;101464.94;5024036;28;20041;-73
2022/07/28 02:16:25;;;;;;;7.53;1.45;;;;;;;10.27;100.00;101458.72;5024297;28;20025;-76
2022/07/28 02:18:54;;;;;;;7.05;1.92;;;;;;;10.33;100.00;101465.38;5007693;28;20540;-76
2022/07/28 02:21:21;;;;;;;5.85;1.98;;;;;;;10.34;100.00;101469.72;5023890;28;20530;-76
2022/07/28 02:23:49;;;;;;;5.00;1.75;;;;;;;10.32;100.00;101469.00;5007649;28;20477;-72
2022/07/28 02:26:17;;;;;;;5.13;1.90;;;;;;;10.28;100.00;101464.94;5025123;28;20057;-76
2022/07/28 02:28:45;;;;;;;4.90;1.77;;;;;;;10.25;100.00;101459.88;5007437;28;20039;-73
2022/07/28 02:31:21;;;;;;;4.97;1.65;;;;;;;10.18;100.00;101453.41;5024884;28;20029;-73
2022/07/28 02:33:47;;;;;;;4.47;1.65;;;;;;;10.05;100.00;101462.56;5025320;28;20044;-76
2022/07/28 02:36:18;;;;;;;10.50;2.00;;;;;;;9.90;100.00;101472.84;5025169;28;20129;-75
2022/07/28 02:38:46;;;;;;;6.75;1.75;;;;;;;9.85;100.00;101474.22;5025251;28;20025;-75
2022/07/28 02:41:17;;;;;;;8.88;1.67;;;;;;;9.87;100.00;101488.25;5006830;28;20027;-73
2022/07/28 02:43:47;;;;;;;4.10;1.55;;;;;;;9.85;100.00;101484.88;5025200;28;20039;-75
2022/07/28 02:46:17;;;;;;;8.02;2.20;;;;;;;9.88;100.00;101490.78;5023396;28;20041;-72
2022/07/28 02:48:46;;;;;;;2.97;1.75;;;;;;;9.85;100.00;101490.22;5007547;28;20036;-73
2022/07/28 02:51:13;;;;;;;7.30;1.77;;;;;;;9.72;100.00;101491.34;5023447;28;20021;-76
2022/07/28 02:53:39;;;;;;;9.18;2.47;;;;;;;9.69;100.00;101501.44;5007288;28;20394;-75
2022/07/28 02:56:06;;;;;;;13.15;2.53;;;;;;;9.68;100.00;101499.75;5023620;28;20171;-76
2022/07/28 02:58:32;;;;;;;;;;;;;;;9.70;100.00;101505.78;5021382;28;20032;-75
2022/07/28 03:00:59;;;;;;;7.50;3.13;;;;;;;9.69;100.00;101506.75;5023265;28;20305;-73
2022/07/28 03:03:24;;;;;;;;;;;;;;;9.64;100.00;101504.50;5024035;28;20045;-75
2022/07/28 03:05:50;;;;;;;;;;;;;;;9.64;100.00;101509.84;5025432;28;19909;-76
2022/07/28 03:08:16;;;;;;;6.43;1.90;;;;;;;9.59;100.00;101504.09;5023507;28;20279;-76
2022/07/28 03:10:41;;;;;;;4.90;1.77;;;;;;;9.58;100.00;101507.75;5024425;28;20021;-76
2022/07/28 03:13:07;;;;;;;5.57;2.65;;;;;;;9.55;100.00;101505.31;5024392;28;20035;-73
2022/07/28 03:15:34;;;;;;;10.67;2.60;;;;;;;9.60;100.00;101518.25;5028683;28;20386;-73
2022/07/28 03:18:01;;;;;;;4.40;1.75;;;;;;;9.65;100.00;101532.03;5028746;28;20303;-76
2022/07/28 03:20:26;;;;;;;5.85;1.88;;;;;;;9.61;100.00;101526.13;5028098;28;20590;-76
2022/07/28 03:22:52;;;;;;;4.13;1.60;;;;;;;9.64;100.00;101530.34;5029100;28;20075;-74
2022/07/28 03:25:37;;;;;;;5.87;2.40;;;;;;;9.65;100.00;101538.19;5026476;28;20033;-73
2022/07/28 03:28:05;;;;;;;2.83;1.60;;;;;;;9.66;100.00;101531.03;5024637;28;20041;-73
2022/07/28 03:30:41;;;;;;;5.32;2.58;;;;;;;9.84;100.00;101536.56;5010776;28;20284;-76
2022/07/28 03:33:07;;;;;;;4.10;2.47;;;;;;;9.93;100.00;101541.91;5007539;28;20033;-74
2022/07/28 03:35:36;;;;;;;3.58;2.25;;;;;;;10.08;100.00;101549.47;5027106;28;20025;-74
2022/07/28 03:38:10;;;;;;;4.53;2.08;;;;;;;10.23;100.00;101560.56;5026708;23;20045;-89
2022/07/28 03:40:37;;;;;;;3.50;1.75;;;;;;;10.37;100.00;101570.84;5047623;28;20032;-90
2022/07/28 03:43:06;;;;;;;12.10;3.75;;;;;;;10.54;100.00;101566.66;5032542;28;20032;-89
2022/07/28 03:45:33;;;;;;;10.27;3.42;;;;;;;10.69;100.00;101573.22;5032005;28;20308;-90
2022/07/28 03:47:59;;;;;;;9.15;2.58;;;;;;;10.81;100.00;101563.22;5032431;28;20036;-89
2022/07/28 03:50:27;;;;;;;5.35;1.92;;;;;;;10.90;100.00;101558.84;5031298;28;20060;-89
2022/07/28 03:52:53;;;;;;;10.32;2.15;;;;;;;10.94;100.00;101553.06;5015604;28;20524;-90
2022/07/28 03:55:19;;;;;;;;;;;;;;;10.99;100.00;101549.97;5015920;28;20040;-89
2022/07/28 03:57:44;;;;;;;;;;;;;;;10.95;100.00;101533.38;5032733;28;19909;-89
2022/07/28 04:00:11;;;;;;;7.97;2.67;;;;;;;10.93;100.00;101543.38;5031945;28;19972;-89
2022/07/28 04:02:42;;;;;;;6.82;2.70;;;;;;;10.84;100.00;101530.91;5016197;28;20441;-89
2022/07/28 04:05:12;;;;;;;7.82;2.28;;;;;;;10.80;100.00;101526.81;5015058;28;20041;-90
2022/07/28 04:07:38;;;;;;;6.78;1.98;;;;;;;10.76;100.00;101522.75;5031861;28;20036;-89
2022/07/28 04:10:07;;;;;;;8.55;2.03;;;;;;;10.70;100.00;101531.31;5031500;28;20017;-90
2022/07/28 04:12:54;;;;;;;4.43;2.05;;;;;;;10.68;100.00;101536.00;5015040;28;20890;-90
2022/07/28 04:15:20;;;;;;;8.43;2.80;;;;;;;10.66;100.00;101521.94;5028423;28;20466;-90
2022/07/28 04:17:49;;;;;;;5.55;2.65;;;;;;;10.60;100.00;101527.84;5030427;28;20028;-90
2022/07/28 04:20:16;;;;;;;2.70;2.10;;;;;;;10.63;100.00;101523.06;5013646;28;20038;-90
2022/07/28 04:22:43;;;;;;;12.75;3.95;;;;;;;10.62;100.00;101532.06;5022109;28;20017;-90
2022/07/28 04:25:11;;;;;;;16.40;6.18;;;;;;;10.64;100.00;101539.94;5029640;28;20041;-90
2022/07/28 04:27:37;;;;;;;6.00;3.80;;;;;;;10.69;100.00;101540.34;5030545;28;20026;-90
2022/07/28 04:30:15;;;;;;;7.65;2.22;;;;;;;10.73;100.00;101541.75;5030669;28;20034;-89
2022/07/28 04:32:44;;;;;;;6.03;2.28;;;;;;;10.86;100.00;101554.78;5023755;28;20104;-90
2022/07/28 04:35:11;;;;;;;3.67;2.13;;;;;;;10.88;100.00;101548.28;5023070;28;20519;-89
2022/07/28 04:37:37;;;;;;;5.18;2.53;;;;;;;10.95;100.00;101541.38;5030868;28;20170;-89
2022/07/28 04:40:04;;;;;;;4.85;1.90;;;;;;;11.03;100.00;101546.03;5030200;28;20044;-90
2022/07/28 04:42:30;;;;;;;2.30;1.77;;;;;;;11.11;100.00;101545.28;5030421;28;20029;-90
2022/07/28 04:44:55;;;;;;;8.87;1.83;;;;;;;11.21;100.00;101538.06;5013857;28;20535;-90
2022/07/28 04:47:22;;;;;;;4.77;1.60;;;;;;;11.31;100.00;101538.88;5030584;28;20033;-89
2022/07/28 04:49:47;;;;;;;6.60;1.90;;;;;;;11.47;100.00;101540.03;5031092;28;20014;-90
2022/07/28 04:52:14;;;;;;;10.53;1.97;;;;;;;11.41;100.00;101526.28;5014628;28;20171;-90
2022/07/28 04:54:39;;;;;;;9.52;1.80;;;;;;;11.61;100.00;101528.84;5031184;28;20104;-90
2022/07/28 04:57:05;;;;;;;5.57;1.90;;;;;;;11.74;100.00;101515.94;5030572;28;20068;-89
2022/07/28 04:59:41;;;;;;;6.87;1.93;;;;;;;12.06;100.00;101524.47;5014211;28;20022;-90
2022/07/28 05:02:07;;;;;;;9.38;1.83;;;;;;;12.28;100.00;101510.63;5030327;28;20098;-90
2022/07/28 05:04:33;;;;;;;6.78;1.95;;;;;;;12.56;100.00;101515.88;5018296;28;20022;-90
2022/07/28 05:06:58;;;;;;;4.53;1.53;;;;;;;12.78;100.00;101511.81;5036953;28;20037;-90
2022/07/28 05:09:24;;;;;;;10.83;2.20;;;;;;;13.01;100.00;101496.03;5023073;28;20044;-91
2022/07/28 05:11:50;;;;;;;8.18;1.90;;;;;;;12.97;100.00;101468.72;5030406;28;20037;-90
2022/07/28 05:14:16;;;;;;;2.77;2.13;;;;;;;12.99;100.00;101469.38;5023971;28;20029;-90
2022/07/28 05:16:42;;;;;;;5.40;1.70;;;;;;;13.09;100.00;101464.75;5030741;28;20033;-90
2022/07/28 05:19:07;;;;;;;5.72;1.63;;;;;;;13.08;100.00;101464.88;5015618;28;20024;-91
2022/07/28 05:21:33;;;;;;;7.57;1.43;;;;;;;13.30;100.00;101471.56;5030248;28;20033;-90
2022/07/28 05:23:58;;;;;;;6.23;1.57;;;;;;;13.33;100.00;101476.59;5010928;28;20037;-91
2022/07/28 05:26:23;;;;;;;8.10;1.93;;;;;;;13.23;100.00;101459.78;5045944;28;20043;-90
2022/07/28 05:28:49;;;;;;;4.57;1.30;;;;;;;13.26;100.00;101432.63;5022220;28;20025;-90
2022/07/28 05:31:14;;;;;;;8.00;1.90;;;;;;;13.42;100.00;101438.06;5021753;28;20055;-90
2022/07/28 05:33:40;;;;;;;4.07;1.40;;;;;;;13.56;100.00;101438.44;5030296;28;20683;-90
2022/07/28 05:36:07;;;;;;;5.63;1.67;;;;;;;13.44;100.00;101405.72;5005921;28;20103;-90
2022/07/28 05:38:32;;;;;;;7.65;2.03;;;;;;;13.38;100.00;101419.78;5011135;28;20053;-91
2022/07/28 05:40:58;;;;;;;4.88;1.75;;;;;;;13.33;100.00;101436.34;5025941;28;20030;-90
2022/07/28 05:43:24;;;;;;;3.58;1.80;;;;;;;13.21;100.00;101437.66;5012603;28;20158;-91
2022/07/28 05:45:50;;;;;;;7.30;2.17;;;;;;;13.52;100.00;101465.56;5030060;28;20048;-90
2022/07/28 05:48:19;;;;;;;9.55;2.13;;;;;;;13.67;100.00;101435.41;5013379;28;20436;-90
2022/07/28 05:50:45;;;;;;;3.50;1.25;;;;;;;13.72;100.00;101427.72;5021086;28;20041;-90
2022/07/28 05:53:11;;;;;;;4.63;1.45;;;;;;;13.91;100.00;101422.00;5013394;28;20044;-90
2022/07/28 05:55:36;;;;;;;5.70;1.53;;;;;;;13.89;100.00;101431.25;5029735;28;20521;-90
2022/07/28 05:58:02;;;;;;;6.00;1.60;;;;;;;13.82;100.00;101414.97;5014347;28;20033;-90
2022/07/28 06:00:33;;;;;;;9.43;1.77;;;;;;;14.00;100.00;101414.81;5022370;28;20021;-90
2022/07/28 06:03:02;;;;;;;4.72;1.40;;;;;;;14.24;100.00;101397.00;5029664;28;20025;-90
2022/07/28 06:05:29;;;;;;;3.20;1.70;;;;;;;14.32;100.00;101364.72;5013417;28;20013;-89
2022/07/28 06:07:54;;;;;;;7.65;1.20;;;;;;;14.83;100.00;101372.47;5030979;28;20553;-90
2022/07/28 06:10:22;;;;;;;11.55;3.08;;;;;;;14.45;100.00;101259.44;5030866;28;20112;-90
2022/07/28 06:12:50;;;;;;;5.28;1.30;;;;;;;14.52;100.00;101276.53;5013702;28;20486;-90
2022/07/28 06:15:23;;;;;;;3.05;1.35;;;;;;;14.72;100.00;101299.25;5030051;28;20021;-90
2022/07/28 06:17:51;;;;;;;7.95;1.92;;;;;;;14.49;100.00;101306.41;5029876;28;20051;-91
2022/07/28 06:20:17;;;;;;;3.95;1.17;;;;;;;14.25;100.00;101300.13;5029005;28;20681;-91
2022/07/28 06:22:52;;;;;;;4.72;1.20;;;;;;;14.46;100.00;101306.75;5029558;28;20055;-89
2022/07/28 06:25:23;;;;;;;4.30;1.20;;;;;;;14.51;100.00;101266.75;5029421;28;20037;-91
2022/07/28 06:27:51;;;;;;;6.65;1.40;;;;;;;14.59;100.00;101288.28;5021460;28;20111;-91
2022/07/28 06:30:17;;;;;;;3.55;1.40;;;;;;;14.77;100.00;101315.72;5012453;28;20036;-91
2022/07/28 06:32:44;;;;;;;2.90;1.02;;;;;;;14.80;100.00;101282.28;5026653;28;20041;-91
2022/07/28 06:35:13;;;;;;;7.25;1.30;;;;;;;14.67;100.00;101187.94;5026983;28;20085;-91
2022/07/28 06:37:39;;;;;;;6.10;1.00;;;;;;;14.59;100.00;101170.03;5026575;28;20033;-91
2022/07/28 06:40:06;;;;;;;5.38;0.95;;;;;;;14.91;100.00;101157.34;5026777;28;20018;-91
2022/07/28 06:42:31;;;;;;;3.40;0.88;;;;;;;15.63;100.00;101265.28;5027521;28;20279;-91
2022/07/28 06:44:57;;;;;;;7.93;1.60;;;;;;;17.38;100.00;101139.59;5019088;28;20632;-91
2022/07/28 06:47:23;;;;;;;4.40;0.88;;;;;;;17.30;100.00;100796.03;5028025;28;20037;-91
2022/07/28 06:49:48;;;;;;;5.57;1.02;;;;;;;18.00;94.16;100767.78;5014187;28;20398;-92
2022/07/28 06:52:14;;;;;;;5.00;1.03;;;;;;;18.80;83.26;100687.22;5031143;28;20033;-92
2022/07/28 06:54:39;;;;;;;1.70;0.90;;;;;;;19.65;74.99;100631.75;5023217;28;20025;-92
2022/07/28 06:57:05;;;;;;;7.43;1.23;;;;;;;19.70;69.97;100532.53;5032206;28;20029;-91
2022/07/28 06:59:30;;;;;;;3.25;1.33;;;;;;;19.62;65.75;100413.69;5030843;28;20041;-92
2022/07/28 07:02:00;;;;;;;7.50;1.20;;;;;;;19.85;65.83;100501.50;5031718;28;20477;-91
2022/07/28 07:04:29;;;;;;;3.17;0.80;;;;;;;20.08;68.57;100691.28;5032149;28;20033;-91
2022/07/28 07:06:54;;;;;;;6.05;0.98;;;;;;;19.85;64.53;100501.50;5012552;28;20018;-92
2022/07/28 07:09:20;;;;;;;3.47;0.90;;;;;;;20.49;64.86;100665.31;5030791;28;20038;-92
2022/07/28 07:11:45;;;;;;;3.97;0.90;;;;;;;21.08;60.25;100543.34;5016169;28;20083;-91
2022/07/28 07:14:10;;;;;;;2.07;1.07;;;;;;;21.60;57.73;100518.97;5032983;28;20283;-92
2022/07/28 07:16:36;;;;;;;7.37;1.30;;;;;;;21.79;56.86;100541.34;5023908;28;20037;-91
2022/07/28 07:19:02;;;;;;;6.00;1.10;;;;;;;21.90;55.88;100510.59;5015726;28;20504;-90
2022/07/28 07:21:27;;;;;;;8.32;1.40;;;;;;;21.42;56.80;100522.69;5015729;28;20299;-91
2022/07/28 07:23:52;;;;;;;4.63;1.50;;;;;;;21.41;56.02;100452.31;5030545;28;20429;-90
2022/07/28 07:26:18;;;;;;;1.70;0.77;;;;;;;20.17;56.36;100267.13;5030147;28;20053;-89
2022/07/28 07:28:43;;;;;;;3.60;0.97;;;;;;;19.49;60.88;100519.44;5030441;28;20029;-89
2022/07/28 07:31:08;;;;;;;5.90;1.10;;;;;;;20.29;61.19;100700.00;5011061;28;20076;-90
2022/07/28 07:33:34;;;;;;;5.43;1.03;;;;;;;19.73;60.54;100586.22;5030112;28;20032;-90
2022/07/28 07:35:59;;;;;;;7.17;1.93;;;;;;;19.55;61.84;100621.41;5029944;28;20386;-89
2022/07/28 07:38:25;;;;;;;4.32;0.90;;;;;;;18.75;66.40;100708.63;5029512;28;20085;-89
2022/07/28 07:40:50;;;;;;;3.67;1.03;;;;;;;18.50;69.13;100779.69;5013120;28;20608;-91
2022/07/28 07:43:19;;;;;;;2.17;1.20;;;;;;;18.05;71.79;100782.31;5014347;28;20931;-91
2022/07/28 07:45:44;;;;;;;6.80;1.23;;;;;;;18.39;75.74;101007.41;5014264;28;20499;-90
2022/07/28 07:48:10;;;;;;;4.75;1.23;;;;;;;17.49;76.82;100828.63;5030373;28;20044;-90
2022/07/28 07:50:37;;;;;;;2.57;1.13;;;;;;;16.98;83.93;100966.69;5010151;28;20029;-90
2022/07/28 07:53:03;;;;;;;4.53;1.10;;;;;;;16.88;86.03;101015.59;5030189;28;20041;-90
2022/07/28 07:55:28;;;;;;;4.35;1.02;;;;;;;17.10;88.19;101135.03;5021316;28;20121;-90
2022/07/28 07:57:54;;;;;;;2.45;0.75;;;;;;;17.98;85.41;101221.81;5021106;28;20485;-90
2022/07/28 08:00:20;;;;;;;2.23;0.90;;;;;;;18.33;75.32;100975.78;5027888;28;20028;-90
2022/07/28 08:02:45;;;;;;;;;;;;;;;17.96;76.44;100947.50;5022173;28;20079;-90
2022/07/28 08:05:11;;;;;;;;;;;;;;;17.69;81.90;101056.25;5029719;28;19909;-90
2022/07/28 08:07:36;;;;;;;3.77;1.00;;;;;;;16.43;87.14;100970.00;5029284;28;20015;-90
2022/07/28 08:10:03;;;;;;;11.65;2.05;;;;;;;17.06;94.79;101249.75;5029488;28;20025;-91
2022/07/28 08:12:29;;;;;;;3.80;1.17;;;;;;;17.51;85.40;101118.06;5029668;28;20065;-90
2022/07/28 08:14:54;;;;;;;5.13;0.90;;;;;;;17.46;81.45;101002.59;5009623;28;20049;-90
2022/07/28 08:17:21;;;;;;;2.92;1.17;;;;;;;17.97;80.08;101103.16;5029026;28;20029;-90
2022/07/28 08:19:46;;;;;;;5.78;1.73;;;;;;;18.04;75.23;100967.03;5025059;28;20098;-91
2022/07/28 08:22:12;;;;;;;4.10;0.90;;;;;;;19.63;67.55;101012.97;5054582;28;20021;-91
2022/07/28 08:24:38;;;;;;;4.00;1.10;;;;;;;20.23;65.57;101008.88;5042116;28;20060;-89
2022/07/28 08:27:04;;;;;;;2.80;0.90;;;;;;;20.82;64.20;101062.88;5029285;28;20037;-90
2022/07/28 08:29:29;;;;;;;2.03;0.90;;;;;;;20.75;59.58;100802.50;5009116;28;20045;-90
2022/07/28 08:31:55;;;;;;;1.10;0.73;;;;;;;20.23;57.66;100555.38;5016990;28;20136;-89
2022/07/28 08:34:21;;;;;;;4.93;1.33;;;;;;;20.01;59.08;100669.66;5020836;28;20033;-90
2022/07/28 08:36:46;;;;;;;3.37;0.80;;;;;;;20.32;57.29;100635.31;5021074;28;20565;-89
2022/07/28 08:39:11;;;;;;;2.23;0.70;;;;;;;19.20;58.05;100456.91;5029508;28;20034;-90
2022/07/28 08:41:50;;;;;;;5.77;0.80;;;;;;;19.12;61.09;100684.50;5018349;28;20056;-91
2022/07/28 08:44:50;;;;;;;4.45;1.73;;;;;;;19.16;61.53;100764.19;5012058;28;20040;-90
2022/07/28 08:47:16;;;;;;;2.65;0.73;;;;;;;19.32;61.29;100773.66;5028832;28;20045;-90
2022/07/28 08:49:42;;;;;;;5.30;0.80;;;;;;;19.46;60.48;100777.09;5012457;28;20408;-90
2022/07/28 08:52:10;;;;;;;5.32;1.45;;;;;;;20.26;61.17;100979.69;5012628;28;20095;-91
2022/07/28 08:54:41;;;;;;;2.72;0.80;;;;;;;20.43;55.90;100644.53;5010465;28;20022;-89
2022/07/28 08:57:08;;;;;;;1.33;0.70;;;;;;;20.40;56.15;100689.22;5025572;28;20029;-90
2022/07/28 08:59:35;;;;;;;5.65;1.40;;;;;;;20.95;55.81;100810.34;5011697;28;20040;-90
2022/07/28 09:02:01;;;;;;;2.70;0.77;;;;;;;21.42;53.03;100687.50;5028994;28;20037;-91
2022/07/28 09:04:26;;;;;;;6.72;1.17;;;;;;;20.06;53.85;100425.09;5030977;28;20075;-90
2022/07/28 09:06:53;;;;;;;1.65;0.95;;;;;;;19.03;58.16;100537.81;5031831;28;20045;-90
2022/07/28 09:09:20;;;;;;;4.03;1.00;;;;;;;19.98;58.33;100810.22;5032844;28;20014;-91
2022/07/28 09:11:45;;;;;;;3.65;0.93;;;;;;;21.18;54.72;100803.38;5014733;28;20061;-89
2022/07/28 09:14:11;;;;;;;4.23;1.00;;;;;;;20.35;53.43;100469.47;5014325;28;20819;-91
2022/07/28 09:16:37;;;;;;;2.83;1.37;;;;;;;19.91;54.93;100501.41;5033021;28;20029;-91
2022/07/28 09:19:02;;;;;;;3.47;0.93;;;;;;;19.64;57.92;100698.59;5030967;28;20444;-91
2022/07/28 09:21:28;;;;;;;2.30;0.80;;;;;;;19.16;59.53;100674.88;5022480;28;20437;-88
2022/07/28 09:23:54;;;;;;;3.72;1.35;;;;;;;19.14;59.60;100709.44;5031288;28;20026;-88
2022/07/28 09:26:19;;;;;;;3.03;0.90;;;;;;;18.62;59.87;100571.66;5030296;28;20052;-88
2022/07/28 09:28:47;;;;;;;1.80;0.70;;;;;;;18.17;61.25;100595.22;5013641;28;20032;-87
2022/07/28 09:31:15;;;;;;;2.30;0.90;;;;;;;18.72;63.74;100890.25;5029467;28;20117;-88
2022/07/28 09:33:52;;;;;;;5.22;0.98;;;;;;;18.17;66.33;100860.88;5021343;28;20017;-88
2022/07/28 09:36:17;;;;;;;2.78;0.63;;;;;;;18.53;65.54;100924.41;5030200;28;20033;-87
2022/07/28 09:38:43;;;;;;;4.03;1.47;;;;;;;18.65;64.28;100870.53;5029666;28;20032;-88
2022/07/28 09:41:10;;;;;;;4.85;1.20;;;;;;;18.08;64.08;100729.75;5030779;28;20057;-85
2022/07/28 09:43:36;;;;;;;;;;;;;;;18.55;66.68;100969.13;5030121;28;20048;-87
2022/07/28 09:46:23;;;;;;;1.40;0.70;;;;;;;18.68;65.01;100918.75;5029488;28;19913;-87
2022/07/28 09:48:48;;;;;;;2.03;0.90;;;;;;;18.74;63.60;100875.47;5023338;28;20060;-88
2022/07/28 09:51:30;;;;;;;3.27;1.27;;;;;;;18.81;62.31;100839.50;5028861;28;20469;-88
2022/07/28 09:54:25;;;;;;;3.58;1.20;;;;;;;18.21;62.02;100674.81;5029367;28;20034;-89
2022/07/28 09:56:51;;;;;;;2.92;1.00;;;;;;;18.24;63.28;100777.91;5004387;28;20045;-89
2022/07/28 09:59:17;;;;;;;5.53;0.80;;;;;;;18.03;62.29;100630.44;5028597;28;20109;-87
2022/07/28 10:01:59;;;;;;;5.72;1.60;;;;;;;18.83;62.16;100868.00;5028353;28;20037;-88
2022/07/28 10:04:40;;;;;;;6.43;0.80;;;;;;;19.29;59.95;100828.22;5011998;28;20486;-88
2022/07/28 10:07:10;;;;;;;2.85;0.90;;;;;;;20.48;56.38;100869.75;5028322;28;20025;-88
2022/07/28 10:09:37;;;;;;;2.17;0.70;;;;;;;20.35;55.63;100747.91;5028046;28;20030;-89
2022/07/28 10:12:36;;;;;;;3.90;0.77;;;;;;;20.41;53.50;100604.09;5029200;28;20440;-87
2022/07/28 10:16:09;;;;;;;7.97;2.22;;;;;;;20.84;52.97;100689.88;5003320;28;20068;-88
2022/07/28 10:17:57;;;;;;;2.20;1.10;;;;;;;20.99;53.70;100767.31;5024746;28;20098;-87
2022/07/28 10:20:23;;;;;;;5.13;0.83;;;;;;;19.90;55.19;100599.16;5028426;28;20104;-87
2022/07/28 10:22:51;;;;;;;3.00;0.95;;;;;;;19.90;56.73;100737.31;5028587;28;20128;-88
2022/07/28 10:25:20;;;;;;;4.57;1.15;;;;;;;20.23;55.64;100743.22;5011004;28;20028;-88
2022/07/28 10:27:47;;;;;;;2.45;0.98;;;;;;;19.61;57.05;100680.09;5028971;28;20064;-89
2022/07/28 10:30:13;;;;;;;4.28;0.70;;;;;;;19.47;55.80;100597.34;5020153;28;20116;-88
2022/07/28 10:32:44;;;;;;;3.17;0.80;;;;;;;19.79;55.83;100665.78;5028952;28;20164;-88
2022/07/28 10:35:11;;;;;;;2.75;0.90;;;;;;;19.34;54.94;100466.53;5028303;28;20042;-87
2022/07/28 10:37:42;;;;;;;4.65;0.85;;;;;;;20.16;55.08;100718.09;5028550;28;20037;-87
2022/07/28 10:40:09;;;;;;;4.18;0.90;;;;;;;20.15;55.20;100734.56;5012532;28;20096;-88
2022/07/28 10:42:35;;;;;;;1.83;0.60;;;;;;;20.35;55.58;100815.69;5028692;28;20389;-89
2022/07/28 10:45:02;;;;;;;4.03;0.90;;;;;;;20.29;54.61;100708.13;5028351;28;20033;-88
2022/07/28 10:47:28;;;;;;;1.33;0.75;;;;;;;19.87;53.70;100516.47;5003802;28;20029;-88
2022/07/28 10:49:54;;;;;;;8.60;1.40;;;;;;;19.22;56.08;100576.56;5011313;28;20631;-88
2022/07/28 10:52:21;;;;;;;3.08;0.70;;;;;;;19.63;56.26;100702.38;5010888;28;20076;-89
2022/07/28 10:55:24;;;;;;;2.15;1.23;;;;;;;19.59;56.38;100701.97;5011873;28;20029;-88
2022/07/28 10:58:01;;;;;;;4.13;0.98;;;;;;;20.40;53.92;100740.72;5045136;28;20037;-89
2022/07/28 11:00:28;;;;;;;2.38;0.80;;;;;;;20.10;52.71;100531.16;5028043;28;20390;-88
2022/07/28 11:03:00;;;;;;;2.17;0.77;;;;;;;19.42;55.96;100637.81;5028749;28;20032;-88
2022/07/28 11:05:29;;;;;;;5.20;1.00;;;;;;;18.92;56.19;100525.88;5028313;28;20033;-88
2022/07/28 11:07:56;;;;;;;3.83;0.88;;;;;;;18.58;57.30;100526.34;5028329;28;20032;-89
2022/07/28 11:10:21;;;;;;;4.20;1.00;;;;;;;19.27;55.81;100638.13;5029404;28;20029;-90
2022/07/28 11:12:55;;;;;;;2.00;1.30;;;;;;;19.01;56.41;100606.72;5028986;28;20026;-89
2022/07/28 11:15:25;;;;;;;3.00;0.90;;;;;;;20.16;54.16;100749.78;5028641;28;20041;-89
2022/07/28 11:18:05;;;;;;;6.53;1.00;;;;;;;21.03;51.84;100727.81;5020504;28;20025;-90
2022/07/28 11:20:49;;;;;;;2.83;0.85;;;;;;;22.70;51.71;101131.88;5007777;28;20496;-89
2022/07/28 11:23:33;;;;;;;6.95;0.90;;;;;;;23.47;47.54;100846.81;5028689;28;20045;-91
2022/07/28 11:26:24;;;;;;;4.18;1.27;;;;;;;22.58;46.71;100475.34;5028896;28;20401;-92
2022/07/28 11:28:58;;;;;;;3.80;0.90;;;;;;;22.00;49.21;100655.91;5040214;28;20048;-92
2022/07/28 11:31:42;;;;;;;3.08;1.23;;;;;;;21.54;50.19;100638.59;5035202;28;20041;-91